CDT,Max TemperatureF,Mean TemperatureF,Min TemperatureF,Max Dew PointF,MeanDew PointF,Min DewpointF,Max Humidity, Mean Humidity, Min Humidity, Max Sea Level PressureIn, Mean Sea Level PressureIn, Min Sea Level PressureIn, Max VisibilityMiles, Mean VisibilityMiles, Min VisibilityMiles, Max Wind SpeedMPH, Mean Wind SpeedMPH, Max Gust SpeedMPH,PrecipitationIn, CloudCover, Events, WindDirDegrees
2013-3-1,32,30,27,27,24,20,94,78,72,30.27,30.18,30.12,10,8,2,13,8,17,0.00,8,Snow,322
2013-3-2,31,24,16,20,16,14,92,66,50,30.33,30.28,30.22,10,10,7,14,7,17,0.00,5,Snow,314
2013-3-3,39,27,15,23,17,12,90,64,41,30.22,30.05,29.89,10,10,7,14,5,18,0.00,5,,126
2013-3-4,50,42,34,30,28,23,78,61,44,29.88,29.78,29.69,10,10,10,16,11,22,0.00,1,,82
2013-3-5,36,34,31,33,24,18,98,70,54,30.26,30.08,29.88,10,9,3,23,13,34,0.00,7,Rain-Snow,301
2013-3-6,33,28,23,21,20,18,83,67,56,30.41,30.35,30.26,10,10,10,17,9,21,0.00,5,,321
2013-3-7,46,32,19,27,23,18,95,70,44,30.36,30.30,30.22,10,10,7,10,5,,0.00,0,,94
2013-3-8,51,42,33,32,29,27,81,63,46,30.30,30.22,30.08,10,10,10,13,9,17,0.00,2,Rain,120
2013-3-9,65,52,38,51,41,32,97,70,40,30.08,29.85,29.69,10,9,2,21,11,26,0.45,8,Rain-Thunderstorm,147
2013-3-10,55,44,32,54,46,30,99,93,75,29.82,29.69,29.61,10,8,3,15,9,24,0.75,8,Rain-Thunderstorm,201
2013-3-11,66,32,29,31,26,23,92,79,62,29.99,29.87,29.77,10,10,5,17,11,25,0.00,6,,274
2013-3-12,66,36,27,28,24,19,92,65,44,30.28,30.13,30.00,10,10,10,21,7,31,0.00,3,,277
2013-3-13,66,34,26,22,19,15,73,55,35,30.47,30.38,30.29,10,10,10,14,8,20,0.00,2,,303
2013-3-14,67,47,27,40,30,21,80,54,32,30.36,30.17,30.04,10,10,10,15,6,21,0.00,3,,187
2013-3-15,78,56,33,46,41,33,99,60,27,30.08,29.84,29.66,10,10,7,15,4,21,0.00,0,,212
2013-3-16,78,51,37,47,37,31,85,71,50,30.06,29.92,29.66,10,9,4,16,9,28,0.00,5,Rain,356
2013-3-17,78,35,33,34,31,27,97,87,75,30.07,29.95,29.76,10,8,3,17,11,24,0.28,8,Rain-Snow-Thunderstorm,59
2013-3-18,78,42,34,37,31,18,100,72,35,30.05,29.84,29.72,10,8,2,20,8,32,0.00,5,,299
2013-3-19,78,38,32,33,18,11,95,48,27,30.24,30.17,30.05,10,10,10,10,5,,0.00,4,,272
2013-3-20,78,30,26,34,16,5,99,57,30,30.33,30.24,30.14,10,9,4,18,9,25,0.00,3,,307
2013-3-21,78,28,19,27,14,8,82,57,29,30.14,30.04,29.93,10,10,10,8,2,,0.00,5,,117
2013-3-22,78,36,32,31,25,20,80,67,59,30.01,29.98,29.95,10,10,10,10,5,,0.00,8,,76
2013-3-23,78,42,35,37,29,25,96,66,42,30.03,29.95,29.86,10,9,4,16,8,25,0.21,8,Rain,41
2013-3-24,78,32,30,34,30,24,100,93,78,29.98,29.82,29.68,10,3,0,21,14,30,0.05,8,Rain-Snow,341
2013-3-25,78,30,26,28,24,22,92,78,67,30.27,30.09,29.96,10,7,1,16,11,23,0.00,8,Snow,296
2013-3-26,78,30,24,23,21,18,85,66,46,30.38,30.33,30.27,10,10,10,12,6,18,0.00,3,,301
2013-3-27,78,34,24,30,26,22,96,70,50,30.37,30.32,30.25,10,10,10,12,3,,0.00,5,,115
2013-3-28,78,50,37,39,34,29,74,58,35,30.28,30.22,30.16,10,10,10,12,7,10,0.00,6,,93
2013-3-29,78,51,36,40,36,29,96,60,25,30.23,30.18,30.15,10,10,5,10,6,,0.00,1,Thunderstorm,57
2013-3-30,78,49,45,51,46,38,100,91,69,30.16,30.01,29.90,10,7,0,16,8,20,0.32,5,Fog-Rain-Thunderstorm,129
2013-3-31,78,52,40,50,41,28,100,69,37,29.96,29.92,29.89,10,6,0,15,3,22,0.00,4,Fog,305